Time;durP1;ratioP1;P1;durP2;ratioP2;P2;SDS_P1;SDS_P2;PMS_P1;PMS_P2;Temp;Humidity;BMP_temperature;BMP_pressure;BME280_temperature;BME280_humidity;BME280_pressure;Samples;Min_cycle;Max_cycle;Signal;HPM_P1;HPM_P2
2022/01/31 00:00:12;;;;;;;11.00;7.03;;;0.70;99.90;;;;;;6280995;22;20171;-80
2022/01/31 00:02:38;;;;;;;12.30;7.03;;;0.70;99.90;;;;;;6278623;22;20226;-80
2022/01/31 00:05:04;;;;;;;13.63;7.07;;;0.70;99.90;;;;;;6278271;22;20148;-80
2022/01/31 00:07:30;;;;;;;10.57;7.13;;;0.70;99.90;;;;;;6280445;22;20137;-80
2022/01/31 00:09:56;;;;;;;11.47;7.00;;;0.90;99.90;;;;;;6279744;22;20239;-79
2022/01/31 00:12:26;;;;;;;19.20;7.50;;;0.70;99.90;;;;;;6280498;22;20152;-80
2022/01/31 00:14:54;;;;;;;13.40;7.40;;;0.70;99.90;;;;;;6280443;22;20148;-79
2022/01/31 00:17:20;;;;;;;11.17;7.20;;;0.80;99.90;;;;;;6280194;22;20224;-79
2022/01/31 00:19:46;;;;;;;11.47;7.33;;;0.80;99.90;;;;;;6280520;22;20257;-79
2022/01/31 00:22:13;;;;;;;10.03;6.57;;;0.90;99.90;;;;;;6279930;22;20148;-79
2022/01/31 00:24:39;;;;;;;11.73;7.00;;;0.90;99.90;;;;;;6279986;22;20147;-79
2022/01/31 00:27:07;;;;;;;12.93;6.80;;;0.90;99.90;;;;;;6252784;22;20214;-79
2022/01/31 00:29:33;;;;;;;9.67;6.73;;;0.90;99.90;;;;;;6280128;22;20569;-79
2022/01/31 00:31:59;;;;;;;17.03;8.77;;;0.90;99.90;;;;;;6252711;22;20159;-80
2022/01/31 00:34:25;;;;;;;13.47;6.90;;;0.80;99.90;;;;;;6280796;22;20163;-80
2022/01/31 00:36:51;;;;;;;16.63;7.37;;;0.70;99.90;;;;;;6276633;22;20230;-80
2022/01/31 00:39:16;;;;;;;10.50;6.57;;;0.70;99.90;;;;;;6278913;22;20440;-79
2022/01/31 00:41:43;;;;;;;14.63;6.87;;;0.70;99.90;;;;;;6251814;22;20156;-79
2022/01/31 00:44:26;;;;;;;10.00;7.17;;;0.80;99.90;;;;;;6279893;22;20179;-78
2022/01/31 00:46:57;;;;;;;10.73;6.83;;;0.80;99.90;;;;;;6251715;22;20168;-79
2022/01/31 00:49:34;;;;;;;9.50;6.10;;;0.90;99.90;;;;;;6279822;22;20135;-78
2022/01/31 00:52:00;;;;;;;8.93;6.50;;;0.90;99.90;;;;;;6252352;22;20190;-79
2022/01/31 00:54:26;;;;;;;12.27;6.83;;;0.90;99.90;;;;;;6279435;22;20146;-79
2022/01/31 00:56:52;;;;;;;14.13;6.80;;;1.00;99.90;;;;;;6279078;22;20200;-80
2022/01/31 00:59:19;;;;;;;12.40;6.90;;;1.00;99.90;;;;;;6277959;22;20226;-80
2022/01/31 01:01:45;;;;;;;13.63;6.80;;;1.00;99.90;;;;;;6277724;22;20147;-79
2022/01/31 01:04:11;;;;;;;14.27;7.87;;;1.10;99.90;;;;;;6279058;22;20155;-79
2022/01/31 01:06:37;;;;;;;13.20;7.40;;;1.20;99.90;;;;;;6278994;22;20200;-79
2022/01/31 01:09:03;;;;;;;12.97;7.23;;;1.10;99.90;;;;;;6279965;22;20569;-79
2022/01/31 01:11:29;;;;;;;9.60;6.27;;;1.10;99.90;;;;;;6252190;22;20306;-80
2022/01/31 01:13:55;;;;;;;12.10;6.83;;;1.10;99.90;;;;;;6277999;22;20513;-81
2022/01/31 01:16:20;;;;;;;12.73;6.47;;;1.10;99.90;;;;;;6277729;22;20217;-80
2022/01/31 01:18:46;;;;;;;10.00;6.13;;;1.10;99.90;;;;;;6250495;22;20152;-79
2022/01/31 01:21:12;;;;;;;9.37;5.43;;;1.10;99.90;;;;;;6251164;22;20183;-79
2022/01/31 01:23:38;;;;;;;7.50;5.23;;;1.10;99.90;;;;;;6280457;22;20144;-79
2022/01/31 01:26:04;;;;;;;10.57;5.30;;;1.10;99.90;;;;;;6279427;22;20613;-78
2022/01/31 01:28:30;;;;;;;8.63;5.97;;;1.10;99.90;;;;;;6280398;22;20172;-79
2022/01/31 01:30:56;;;;;;;11.37;5.60;;;1.10;99.90;;;;;;6281459;22;20150;-79
2022/01/31 01:33:23;;;;;;;8.27;5.77;;;1.10;99.90;;;;;;6280205;22;20148;-81
2022/01/31 01:35:51;;;;;;;13.97;5.77;;;1.20;99.90;;;;;;6279512;22;20176;-79
2022/01/31 01:38:18;;;;;;;8.93;5.77;;;1.10;99.90;;;;;;6251868;22;20164;-80
2022/01/31 01:40:46;;;;;;;11.47;6.43;;;1.20;99.90;;;;;;6280471;22;20232;-80
2022/01/31 01:43:13;;;;;;;11.43;6.33;;;1.10;99.90;;;;;;6280388;22;20156;-80
2022/01/31 01:45:40;;;;;;;12.80;6.73;;;1.10;99.90;;;;;;6279175;22;20168;-79
2022/01/31 01:48:07;;;;;;;14.50;7.70;;;1.10;99.90;;;;;;6280640;22;20149;-79
2022/01/31 01:50:38;;;;;;;13.07;6.43;;;1.20;99.90;;;;;;6253283;22;20156;-80
2022/01/31 01:53:05;;;;;;;7.93;6.30;;;1.30;99.90;;;;;;6280564;22;20155;-79
2022/01/31 01:55:31;;;;;;;13.13;6.40;;;1.30;99.90;;;;;;6252370;22;20179;-81
2022/01/31 01:57:57;;;;;;;12.40;6.07;;;1.40;99.90;;;;;;6280619;22;20178;-79
2022/01/31 02:00:26;;;;;;;7.53;6.07;;;1.40;99.90;;;;;;6280584;22;20636;-79
2022/01/31 02:02:53;;;;;;;13.07;6.10;;;1.80;99.90;;;;;;6280607;22;20149;-79
2022/01/31 02:05:19;;;;;;;7.87;5.73;;;1.40;99.90;;;;;;6280472;22;20175;-80
2022/01/31 02:07:45;;;;;;;8.03;5.07;;;1.40;99.90;;;;;;6280059;22;20140;-81
2022/01/31 02:10:11;;;;;;;10.17;5.40;;;1.50;99.90;;;;;;6280079;22;20637;-80
2022/01/31 02:12:46;;;;;;;12.70;4.90;;;1.60;99.90;;;;;;6280735;22;20160;-79
2022/01/31 02:15:12;;;;;;;10.03;5.03;;;1.80;99.90;;;;;;6279978;22;20274;-79
2022/01/31 02:17:38;;;;;;;14.27;5.50;;;1.90;99.90;;;;;;6279681;22;20531;-79
2022/01/31 02:20:06;;;;;;;9.40;5.83;;;1.90;99.90;;;;;;6280805;22;20164;-78
2022/01/31 02:22:32;;;;;;;6.33;5.23;;;1.90;99.90;;;;;;6281432;22;20639;-79
2022/01/31 02:24:58;;;;;;;10.47;5.20;;;1.80;99.90;;;;;;6280424;22;20149;-79
2022/01/31 02:27:32;;;;;;;9.63;5.60;;;1.90;99.90;;;;;;6279306;22;20589;-79
2022/01/31 02:29:58;;;;;;;8.87;5.60;;;1.80;99.90;;;;;;6279441;22;20156;-79
2022/01/31 02:32:24;;;;;;;7.67;4.70;;;2.00;99.90;;;;;;6280705;22;20144;-78
2022/01/31 02:34:50;;;;;;;12.83;5.00;;;1.80;99.90;;;;;;6280272;22;20156;-78
2022/01/31 02:37:17;;;;;;;11.70;5.37;;;1.90;99.90;;;;;;6279353;22;20224;-79
2022/01/31 02:39:43;;;;;;;11.03;4.73;;;1.90;99.90;;;;;;6251431;22;20176;-80
2022/01/31 02:42:09;;;;;;;12.80;6.17;;;1.90;99.90;;;;;;6251434;22;20152;-79
2022/01/31 02:44:38;;;;;;;8.17;4.90;;;2.00;99.90;;;;;;6253004;22;20592;-79
2022/01/31 02:47:09;;;;;;;8.57;5.20;;;2.00;99.90;;;;;;6278962;22;20601;-79
2022/01/31 02:49:44;;;;;;;8.50;5.03;;;2.00;99.90;;;;;;6253363;22;20180;-79
2022/01/31 02:52:13;;;;;;;14.00;4.50;;;2.00;99.90;;;;;;6249245;22;20140;-79
2022/01/31 02:54:38;;;;;;;6.80;5.10;;;2.00;99.90;;;;;;6278546;22;20598;-79
2022/01/31 02:57:04;;;;;;;10.30;4.70;;;2.10;99.90;;;;;;6251414;22;20212;-79
2022/01/31 02:59:31;;;;;;;11.43;4.50;;;2.10;99.90;;;;;;6251411;22;20173;-78
2022/01/31 03:01:57;;;;;;;8.47;3.87;;;2.10;99.90;;;;;;6251320;22;20231;-79
2022/01/31 03:04:23;;;;;;;7.53;3.90;;;2.10;99.90;;;;;;6278855;22;20147;-79
2022/01/31 03:06:49;;;;;;;16.57;4.40;;;2.70;99.90;;;;;;6278382;22;20180;-79
2022/01/31 03:09:16;;;;;;;8.13;4.00;;;2.20;99.90;;;;;;6278648;22;20153;-79
2022/01/31 03:11:42;;;;;;;7.33;4.07;;;2.20;99.90;;;;;;6250918;22;20156;-78
2022/01/31 03:14:09;;;;;;;6.93;3.60;;;2.30;99.90;;;;;;6278840;22;20227;-79
2022/01/31 03:16:39;;;;;;;10.93;4.23;;;2.20;99.90;;;;;;6279050;22;20206;-79
2022/01/31 03:19:06;;;;;;;8.77;4.23;;;2.20;99.90;;;;;;6277498;22;20153;-79
2022/01/31 03:21:32;;;;;;;8.93;4.30;;;2.20;99.90;;;;;;6277538;22;20478;-78
2022/01/31 03:23:57;;;;;;;10.60;3.97;;;2.20;99.90;;;;;;6277442;22;20201;-78
2022/01/31 03:26:26;;;;;;;12.63;4.23;;;2.30;99.90;;;;;;6277677;22;20240;-78
2022/01/31 03:28:53;;;;;;;9.40;4.17;;;2.30;99.90;;;;;;6250281;22;20184;-79
2022/01/31 03:31:20;;;;;;;10.80;3.67;;;2.40;99.90;;;;;;6277730;22;20152;-78
2022/01/31 03:33:47;;;;;;;10.53;3.20;;;2.40;99.90;;;;;;6250988;22;20163;-79
2022/01/31 03:36:13;;;;;;;9.30;3.27;;;2.40;99.90;;;;;;6252204;22;20314;-78
2022/01/31 03:38:41;;;;;;;7.53;3.03;;;2.60;99.90;;;;;;6252328;22;20227;-78
2022/01/31 03:41:12;;;;;;;6.27;2.90;;;2.70;99.90;;;;;;6279429;22;20171;-79
2022/01/31 03:43:38;;;;;;;7.77;3.53;;;3.10;99.90;;;;;;6279472;22;20169;-78
2022/01/31 03:46:04;;;;;;;7.03;2.63;;;2.80;99.90;;;;;;6279224;22;20164;-79
2022/01/31 03:48:31;;;;;;;5.73;3.07;;;2.80;99.90;;;;;;6279214;22;20145;-78
2022/01/31 03:50:58;;;;;;;7.07;2.87;;;2.90;99.90;;;;;;6251802;22;20192;-77
2022/01/31 03:53:24;;;;;;;8.63;3.30;;;2.80;99.90;;;;;;6279210;22;20150;-79
2022/01/31 03:55:49;;;;;;;8.80;3.33;;;2.80;99.90;;;;;;6279187;22;20168;-79
2022/01/31 03:58:15;;;;;;;7.77;2.90;;;2.90;99.90;;;;;;6279079;22;20150;-79
2022/01/31 04:00:41;;;;;;;11.67;3.17;;;2.80;99.90;;;;;;6252138;22;20181;-79
2022/01/31 04:03:08;;;;;;;8.77;2.80;;;2.80;99.90;;;;;;6279494;22;20148;-79
2022/01/31 04:05:33;;;;;;;10.13;2.73;;;2.90;99.90;;;;;;6278750;22;20184;-78
2022/01/31 04:07:59;;;;;;;10.17;3.03;;;2.90;99.90;;;;;;6251816;22;20665;-78
2022/01/31 04:10:26;;;;;;;14.67;2.97;;;2.90;99.90;;;;;;6251848;22;20163;-79
2022/01/31 04:12:52;;;;;;;10.63;2.67;;;3.00;99.90;;;;;;6251475;22;20153;-78
2022/01/31 04:15:18;;;;;;;10.93;3.07;;;3.00;99.90;;;;;;6251668;22;20184;-78
2022/01/31 04:17:45;;;;;;;8.40;2.57;;;3.00;99.90;;;;;;6255555;22;20160;-79
2022/01/31 04:20:11;;;;;;;8.53;2.53;;;3.00;99.90;;;;;;6263030;22;20222;-78
2022/01/31 04:22:45;;;;;;;9.53;2.77;;;3.10;99.90;;;;;;6291175;22;20510;-78
2022/01/31 04:25:27;;;;;;;9.73;3.07;;;3.10;99.90;;;;;;6253437;22;20224;-79
2022/01/31 04:28:01;;;;;;;6.37;2.60;;;3.10;99.90;;;;;;6252655;22;20137;-79
2022/01/31 04:30:36;;;;;;;11.27;2.73;;;3.10;99.90;;;;;;6280291;22;20145;-79
2022/01/31 04:33:01;;;;;;;6.63;2.30;;;3.20;99.90;;;;;;6252420;22;20148;-79
2022/01/31 04:35:27;;;;;;;8.93;3.73;;;3.20;99.90;;;;;;6279151;22;20519;-79
2022/01/31 04:37:53;;;;;;;8.60;2.57;;;3.30;99.90;;;;;;6251309;22;20500;-80
2022/01/31 04:40:19;;;;;;;9.50;2.70;;;3.30;99.90;;;;;;6279125;22;20489;-78
2022/01/31 04:42:45;;;;;;;8.80;2.23;;;3.30;99.90;;;;;;6252439;22;20582;-79
2022/01/31 04:45:12;;;;;;;7.83;2.17;;;3.40;99.90;;;;;;6252123;22;20169;-79
2022/01/31 04:47:38;;;;;;;3.90;2.03;;;3.40;99.90;;;;;;6252144;22;20154;-79
2022/01/31 04:50:05;;;;;;;8.47;2.27;;;3.40;99.90;;;;;;6279299;22;20170;-79
2022/01/31 04:52:31;;;;;;;7.90;2.80;;;3.50;99.90;;;;;;6251632;22;20180;-79
2022/01/31 04:54:56;;;;;;;7.87;2.47;;;3.50;99.90;;;;;;6251228;22;20595;-79
2022/01/31 04:57:22;;;;;;;10.03;2.97;;;3.50;99.90;;;;;;6251575;22;20158;-79
2022/01/31 04:59:49;;;;;;;6.43;1.97;;;3.50;99.90;;;;;;6279432;22;20177;-78
2022/01/31 05:02:14;;;;;;;10.73;2.33;;;3.60;99.90;;;;;;6250672;22;20175;-79
2022/01/31 05:04:40;;;;;;;6.70;2.10;;;3.50;99.90;;;;;;6279317;22;20574;-79
2022/01/31 05:07:06;;;;;;;6.93;1.83;;;3.60;99.90;;;;;;6280899;22;20582;-79
2022/01/31 05:09:32;;;;;;;6.93;2.23;;;3.60;99.90;;;;;;6280724;22;20175;-78
2022/01/31 05:11:57;;;;;;;7.80;2.40;;;3.60;99.90;;;;;;6281333;22;20240;-78
2022/01/31 05:14:23;;;;;;;10.13;2.30;;;3.60;99.90;;;;;;6282295;22;20534;-79
2022/01/31 05:16:49;;;;;;;3.67;2.13;;;3.60;99.90;;;;;;6281249;22;20176;-79
2022/01/31 05:19:15;;;;;;;6.33;2.13;;;3.60;99.90;;;;;;6282442;22;20205;-79
2022/01/31 05:21:40;;;;;;;10.30;2.77;;;3.60;99.90;;;;;;6282343;22;20183;-77
2022/01/31 05:24:07;;;;;;;8.23;2.43;;;3.70;99.90;;;;;;6280268;22;20210;-79
2022/01/31 05:26:33;;;;;;;6.90;2.57;;;3.60;99.90;;;;;;6309791;22;20224;-79
2022/01/31 05:28:59;;;;;;;7.23;2.33;;;3.70;99.90;;;;;;6309812;22;20140;-79
2022/01/31 05:31:25;;;;;;;4.67;2.03;;;3.60;99.90;;;;;;6309408;22;20235;-80
2022/01/31 05:33:51;;;;;;;4.63;2.37;;;3.60;99.90;;;;;;6281859;22;20168;-79
2022/01/31 05:36:17;;;;;;;6.07;1.90;;;3.70;99.90;;;;;;6309619;22;20229;-79
2022/01/31 05:38:44;;;;;;;6.30;2.57;;;3.70;99.90;;;;;;6282284;22;20470;-79
2022/01/31 05:41:17;;;;;;;6.10;2.70;;;3.70;99.90;;;;;;6282888;22;20234;-79
2022/01/31 05:43:42;;;;;;;9.77;2.67;;;3.70;99.90;;;;;;6282143;22;20274;-79
2022/01/31 05:46:08;;;;;;;8.97;2.50;;;3.70;99.90;;;;;;6309976;22;20581;-80
2022/01/31 05:48:34;;;;;;;5.70;2.03;;;3.70;99.90;;;;;;6309835;22;20144;-79
2022/01/31 05:51:01;;;;;;;9.00;2.53;;;3.70;99.90;;;;;;6282385;22;20160;-79
2022/01/31 05:53:27;;;;;;;6.57;2.60;;;3.80;99.90;;;;;;6309678;22;20170;-79
2022/01/31 05:55:56;;;;;;;6.60;2.27;;;3.70;99.90;;;;;;6310189;22;20518;-79
2022/01/31 05:58:22;;;;;;;6.93;2.30;;;3.80;99.90;;;;;;6282209;22;20197;-79
2022/01/31 06:00:47;;;;;;;4.67;2.00;;;3.80;99.90;;;;;;6308903;22;20169;-79
2022/01/31 06:03:13;;;;;;;7.40;2.33;;;3.80;99.90;;;;;;6309357;22;20160;-79
2022/01/31 06:05:39;;;;;;;6.13;2.43;;;3.80;99.90;;;;;;6309268;22;20141;-79
2022/01/31 06:08:05;;;;;;;7.60;2.63;;;3.80;99.90;;;;;;6283886;22;20159;-79
2022/01/31 06:10:40;;;;;;;9.50;2.47;;;3.80;99.90;;;;;;6311642;22;20251;-79
2022/01/31 06:13:06;;;;;;;9.30;2.70;;;3.90;99.90;;;;;;6310164;22;20165;-79
2022/01/31 06:15:32;;;;;;;5.63;2.27;;;3.90;99.90;;;;;;6312548;22;20183;-79
2022/01/31 06:17:57;;;;;;;6.50;2.77;;;3.90;99.90;;;;;;6283798;22;20155;-79
2022/01/31 06:20:23;;;;;;;3.10;2.40;;;3.90;99.90;;;;;;6312864;22;20144;-79
2022/01/31 06:22:53;;;;;;;3.60;2.37;;;3.90;99.90;;;;;;6283976;22;20487;-80
2022/01/31 06:25:19;;;;;;;8.10;2.40;;;3.90;99.90;;;;;;6310327;22;20536;-79
2022/01/31 06:27:45;;;;;;;8.27;3.40;;;3.90;99.90;;;;;;6309421;22;20153;-79
2022/01/31 06:30:11;;;;;;;5.63;3.33;;;4.00;99.90;;;;;;6308694;22;20175;-80
2022/01/31 06:32:37;;;;;;;6.60;3.10;;;3.90;99.90;;;;;;6309669;22;20168;-80
2022/01/31 06:35:04;;;;;;;6.83;3.30;;;3.90;99.90;;;;;;6309735;22;20176;-80
2022/01/31 06:37:30;;;;;;;6.57;2.50;;;3.90;99.90;;;;;;6307829;22;20150;-80
2022/01/31 06:39:55;;;;;;;5.40;3.20;;;4.00;99.90;;;;;;6308903;22;20183;-80
2022/01/31 06:42:22;;;;;;;3.10;2.73;;;4.00;99.90;;;;;;6309924;22;20152;-79
2022/01/31 06:44:48;;;;;;;8.97;3.10;;;4.00;99.90;;;;;;6316478;22;20164;-79
2022/01/31 06:47:14;;;;;;;4.23;2.80;;;4.10;99.90;;;;;;6316273;22;20154;-79
2022/01/31 06:49:40;;;;;;;5.00;3.00;;;4.10;99.90;;;;;;6313442;22;20178;-79
2022/01/31 06:52:06;;;;;;;4.17;2.90;;;4.20;99.90;;;;;;6310211;22;20158;-80
2022/01/31 06:54:32;;;;;;;5.23;3.13;;;4.20;99.90;;;;;;6311048;22;20165;-79
2022/01/31 06:56:59;;;;;;;5.67;2.70;;;4.10;99.90;;;;;;6310106;22;20463;-79
2022/01/31 06:59:25;;;;;;;6.57;3.37;;;4.20;99.90;;;;;;6309730;22;20154;-80
2022/01/31 07:01:50;;;;;;;4.17;2.37;;;4.20;99.90;;;;;;6309417;22;20588;-80
2022/01/31 07:04:16;;;;;;;5.73;2.60;;;4.20;99.90;;;;;;6306727;22;20174;-79
2022/01/31 07:06:41;;;;;;;6.17;2.13;;;4.20;99.90;;;;;;6308982;22;20224;-79
2022/01/31 07:09:07;;;;;;;3.83;2.60;;;4.20;99.90;;;;;;6309607;22;20155;-80
2022/01/31 07:11:38;;;;;;;3.70;2.70;;;4.20;99.90;;;;;;6309893;22;20175;-80
2022/01/31 07:14:05;;;;;;;5.57;2.33;;;4.20;99.90;;;;;;6308931;22;20165;-79
2022/01/31 07:16:31;;;;;;;3.77;2.10;;;4.20;99.90;;;;;;6309541;22;20145;-80
2022/01/31 07:19:03;;;;;;;7.90;3.13;;;4.20;99.90;;;;;;6310138;22;20175;-79
2022/01/31 07:21:36;;;;;;;4.77;2.20;;;4.20;99.90;;;;;;6309915;22;20190;-79
2022/01/31 07:24:06;;;;;;;5.93;2.87;;;4.30;99.90;;;;;;6309663;22;20192;-80
2022/01/31 07:26:32;;;;;;;6.00;3.90;;;4.30;99.90;;;;;;6308773;22;20586;-80
2022/01/31 07:28:57;;;;;;;4.70;2.50;;;4.30;99.90;;;;;;6310869;22;20162;-80
2022/01/31 07:31:23;;;;;;;4.87;2.50;;;4.30;99.90;;;;;;6311288;22;20251;-80
2022/01/31 07:33:49;;;;;;;3.80;2.17;;;4.40;99.90;;;;;;6310447;22;20174;-80
2022/01/31 07:36:16;;;;;;;7.70;3.20;;;4.30;99.90;;;;;;6311635;22;20149;-80
2022/01/31 07:38:42;;;;;;;6.17;3.17;;;4.30;99.90;;;;;;6311687;22;20151;-80
2022/01/31 07:41:12;;;;;;;3.00;2.70;;;4.30;99.90;;;;;;6311393;22;20472;-79
2022/01/31 07:43:38;;;;;;;4.90;3.10;;;4.30;99.90;;;;;;6311292;22;20166;-79
2022/01/31 07:46:04;;;;;;;5.70;3.47;;;4.20;99.90;;;;;;6311492;22;20209;-81
2022/01/31 07:48:31;;;;;;;4.07;3.20;;;4.10;99.90;;;;;;6311054;22;20615;-80
2022/01/31 07:50:57;;;;;;;6.27;2.90;;;4.00;99.90;;;;;;6312951;22;20523;-80
2022/01/31 07:53:23;;;;;;;7.60;3.07;;;4.00;99.90;;;;;;6311817;22;20240;-80
2022/01/31 07:55:48;;;;;;;5.73;3.23;;;3.90;99.90;;;;;;6312568;22;20145;-80
2022/01/31 07:58:14;;;;;;;5.27;2.90;;;3.80;99.90;;;;;;6312397;22;20532;-80
2022/01/31 08:00:40;;;;;;;8.47;4.30;;;3.80;99.90;;;;;;6312476;22;20256;-80
2022/01/31 08:03:05;;;;;;;4.33;3.60;;;3.70;99.90;;;;;;6312571;22;20187;-80
2022/01/31 08:05:31;;;;;;;8.10;3.70;;;3.70;99.90;;;;;;6311980;22;20145;-80
2022/01/31 08:07:57;;;;;;;7.20;3.37;;;3.70;99.90;;;;;;6311702;22;20581;-79
2022/01/31 08:10:22;;;;;;;4.90;3.17;;;3.70;99.90;;;;;;6319332;22;20169;-80
2022/01/31 08:12:48;;;;;;;5.80;3.13;;;3.70;99.90;;;;;;6327887;22;20204;-80
2022/01/31 08:15:23;;;;;;;6.27;3.70;;;3.60;99.90;;;;;;6321791;22;20216;-80
2022/01/31 08:17:51;;;;;;;5.70;3.90;;;3.50;99.90;;;;;;6310240;22;20599;-79
2022/01/31 08:20:20;;;;;;;5.67;3.90;;;3.40;99.90;;;;;;6307679;22;20593;-80
2022/01/31 08:22:55;;;;;;;5.43;3.90;;;3.40;99.90;;;;;;6312528;22;20167;-81
2022/01/31 08:25:21;;;;;;;5.50;4.20;;;3.40;99.90;;;;;;6309564;22;20212;-79
2022/01/31 08:28:09;;;;;;;6.67;4.40;;;3.30;99.90;;;;;;6312240;22;20219;-80
2022/01/31 08:30:48;;;;;;;5.03;4.20;;;3.30;99.90;;;;;;6313185;22;20616;-80
2022/01/31 08:33:32;;;;;;;7.17;4.23;;;3.30;99.90;;;;;;6308433;22;20501;-79
2022/01/31 08:35:59;;;;;;;6.60;3.67;;;3.20;99.90;;;;;;6306928;22;20128;-79
2022/01/31 08:38:25;;;;;;;5.47;3.70;;;3.30;99.90;;;;;;6309052;22;20140;-79
2022/01/31 08:40:51;;;;;;;4.17;3.77;;;3.20;99.90;;;;;;6309000;22;20206;-79
2022/01/31 08:43:17;;;;;;;7.40;4.37;;;3.30;99.90;;;;;;6306878;22;20172;-79
2022/01/31 08:45:43;;;;;;;5.33;4.47;;;3.20;99.90;;;;;;6309417;22;20159;-79
2022/01/31 08:48:09;;;;;;;5.03;4.63;;;3.20;99.90;;;;;;6307811;22;20231;-79
2022/01/31 08:50:35;;;;;;;5.97;4.90;;;3.20;99.90;;;;;;6309215;22;20204;-79
2022/01/31 08:53:01;;;;;;;6.07;4.07;;;3.20;99.90;;;;;;6311518;22;20165;-80
2022/01/31 08:55:27;;;;;;;7.43;4.43;;;3.10;99.90;;;;;;6311501;22;20140;-79
2022/01/31 08:57:55;;;;;;;5.80;3.93;;;3.50;99.90;;;;;;6312190;22;20148;-79
2022/01/31 09:00:22;;;;;;;5.63;4.60;;;3.10;99.90;;;;;;6311756;22;20149;-79
2022/01/31 09:03:02;;;;;;;5.07;4.33;;;3.10;99.90;;;;;;6311780;22;20492;-79
2022/01/31 09:05:29;;;;;;;5.30;4.90;;;3.20;99.90;;;;;;6312307;22;20128;-79
2022/01/31 09:07:55;;;;;;;8.23;4.77;;;3.10;99.90;;;;;;6311220;22;20590;-80
2022/01/31 09:10:20;;;;;;;5.83;5.20;;;3.10;99.90;;;;;;6309428;22;20211;-79
2022/01/31 09:12:46;;;;;;;8.20;5.00;;;3.00;99.90;;;;;;6307897;22;20175;-79
2022/01/31 09:15:13;;;;;;;5.70;5.13;;;3.20;99.90;;;;;;6310020;22;20193;-79
2022/01/31 09:17:40;;;;;;;9.60;5.17;;;3.20;99.90;;;;;;6308941;22;20624;-80
2022/01/31 09:20:06;;;;;;;7.37;5.40;;;3.20;99.90;;;;;;6309493;22;20222;-79
2022/01/31 09:22:32;;;;;;;7.17;5.40;;;3.20;99.90;;;;;;6309414;22;20239;-80
2022/01/31 09:24:58;;;;;;;7.57;4.93;;;3.20;99.90;;;;;;6307277;22;20188;-79
2022/01/31 09:27:24;;;;;;;11.07;5.47;;;3.20;99.90;;;;;;6308736;22;20155;-79
2022/01/31 09:29:50;;;;;;;5.43;4.67;;;3.20;99.90;;;;;;6309256;22;20195;-80
2022/01/31 09:32:21;;;;;;;8.00;4.97;;;3.20;99.90;;;;;;6309414;22;20151;-79
2022/01/31 09:34:47;;;;;;;4.97;4.57;;;3.20;99.90;;;;;;6307667;22;20192;-79
2022/01/31 09:37:12;;;;;;;5.63;5.03;;;3.20;99.90;;;;;;6308421;22;20148;-80
2022/01/31 09:39:38;;;;;;;5.10;4.60;;;3.10;99.90;;;;;;6309604;22;20149;-79
2022/01/31 09:42:09;;;;;;;4.97;4.10;;;3.10;99.90;;;;;;6309047;22;20625;-79
2022/01/31 09:44:47;;;;;;;7.23;4.00;;;3.20;99.90;;;;;;6310883;22;20174;-79
2022/01/31 09:47:25;;;;;;;4.07;3.67;;;3.20;99.90;;;;;;6311246;22;20512;-79
2022/01/31 09:49:51;;;;;;;4.27;3.73;;;3.20;99.90;;;;;;6312422;22;20589;-80
2022/01/31 09:52:17;;;;;;;5.20;3.90;;;3.30;99.90;;;;;;6311827;22;20229;-80
2022/01/31 09:54:47;;;;;;;5.70;3.53;;;3.40;99.90;;;;;;6311980;22;20169;-80
2022/01/31 09:57:13;;;;;;;3.53;3.23;;;3.30;99.90;;;;;;6311733;22;20148;-80
2022/01/31 09:59:39;;;;;;;3.93;3.53;;;3.40;99.90;;;;;;6311151;22;20150;-81
2022/01/31 10:02:10;;;;;;;3.53;3.07;;;3.40;99.90;;;;;;6312314;22;20143;-80
2022/01/31 10:04:41;;;;;;;3.20;2.37;;;3.40;99.90;;;;;;6311342;22;20639;-80
2022/01/31 10:07:07;;;;;;;4.53;2.30;;;3.40;99.90;;;;;;6311844;22;20211;-80
2022/01/31 10:09:33;;;;;;;2.83;2.33;;;3.40;99.90;;;;;;6311372;22;20596;-81
2022/01/31 10:12:06;;;;;;;4.07;2.47;;;3.40;99.90;;;;;;6311040;22;20144;-80
2022/01/31 10:17:25;;;;;;;2.43;2.13;;;3.40;99.90;;;;;;6310845;22;20143;-80
2022/01/31 10:19:53;;;;;;;3.17;2.23;;;3.40;99.90;;;;;;6310691;22;20152;-80
2022/01/31 10:22:20;;;;;;;3.50;2.47;;;3.50;99.90;;;;;;6308828;22;20552;-80
2022/01/31 10:24:48;;;;;;;2.40;2.20;;;3.50;99.90;;;;;;6311195;22;20188;-80
2022/01/31 10:27:22;;;;;;;3.63;1.87;;;3.50;99.90;;;;;;6310579;22;20616;-80
2022/01/31 10:29:51;;;;;;;1.87;1.57;;;3.70;99.90;;;;;;6308809;22;20168;-80
2022/01/31 10:32:31;;;;;;;1.80;1.30;;;3.70;99.90;;;;;;6310591;22;20171;-80
2022/01/31 10:34:59;;;;;;;2.23;1.40;;;3.70;99.90;;;;;;6311018;22;20176;-80
2022/01/31 10:37:26;;;;;;;2.70;1.67;;;3.80;99.90;;;;;;6311057;22;20147;-80
2022/01/31 10:45:34;;;;;;;6.50;3.80;;;4.00;99.90;;;;;;6307681;22;20499;-81
2022/01/31 10:54:10;;;;;;;0.40;0.40;;;3.70;99.90;;;;;;6310133;22;20231;-81
2022/01/31 10:56:40;;;;;;;0.67;0.40;;;3.50;99.90;;;;;;6310382;22;20597;-81
2022/01/31 10:59:13;;;;;;;1.20;0.40;;;3.40;99.90;;;;;;6310354;22;20588;-80
2022/01/31 11:01:41;;;;;;;1.70;1.40;;;3.40;99.90;;;;;;6309896;22;20522;-80
2022/01/31 11:04:14;;;;;;;1.27;0.53;;;3.40;99.90;;;;;;6309098;22;20176;-81
2022/01/31 11:06:40;;;;;;;1.73;1.20;;;3.50;99.90;;;;;;6313211;22;20133;-80
2022/01/31 11:09:11;;;;;;;1.47;0.93;;;3.70;99.90;;;;;;6313432;22;20156;-80
2022/01/31 11:11:45;;;;;;;0.50;0.50;;;3.70;99.90;;;;;;6312250;22;20204;-80
2022/01/31 11:14:13;;;;;;;0.57;0.50;;;3.70;99.90;;;;;;6311618;22;20159;-81
2022/01/31 11:16:42;;;;;;;2.00;0.60;;;3.80;99.90;;;;;;6309310;22;20171;-80
2022/01/31 11:19:09;;;;;;;0.50;0.50;;;3.90;99.90;;;;;;6311502;22;20150;-80
2022/01/31 11:21:43;;;;;;;0.93;0.60;;;3.80;99.90;;;;;;6316551;22;20156;-81
2022/01/31 11:24:23;;;;;;;0.80;0.50;;;3.90;99.90;;;;;;6313019;22;20179;-80
2022/01/31 11:26:51;;;;;;;1.60;1.00;;;3.80;99.90;;;;;;6311410;22;20470;-80
2022/01/31 11:29:18;;;;;;;1.53;1.00;;;3.90;99.90;;;;;;6310535;22;20209;-80
2022/01/31 11:31:47;;;;;;;0.93;0.50;;;3.90;99.90;;;;;;6310205;22;20160;-81
2022/01/31 11:34:13;;;;;;;1.30;0.40;;;3.90;99.90;;;;;;6309212;22;20620;-81
2022/01/31 11:36:41;;;;;;;1.10;0.63;;;4.00;99.90;;;;;;6309015;22;20156;-80
2022/01/31 11:39:13;;;;;;;0.83;0.50;;;4.00;99.90;;;;;;6310740;22;20158;-81
2022/01/31 11:41:45;;;;;;;0.90;0.70;;;4.00;99.90;;;;;;6311115;22;20133;-80
2022/01/31 11:44:36;;;;;;;1.70;0.80;;;4.30;99.90;;;;;;6310015;22;20204;-81
2022/01/31 11:47:04;;;;;;;1.37;0.50;;;4.10;99.90;;;;;;6311400;22;20132;-80
2022/01/31 11:50:05;;;;;;;0.77;0.60;;;4.30;99.90;;;;;;6309837;22;20156;-81
2022/01/31 11:52:52;;;;;;;0.77;0.57;;;4.30;99.90;;;;;;6302983;22;20483;-80
2022/01/31 11:55:20;;;;;;;2.57;1.50;;;4.40;99.90;;;;;;6290406;22;20156;-80
2022/01/31 11:57:49;;;;;;;1.53;0.67;;;4.60;99.90;;;;;;6309773;22;20153;-80
2022/01/31 12:00:16;;;;;;;2.67;0.73;;;4.60;99.90;;;;;;6312060;22;20153;-80
2022/01/31 12:02:45;;;;;;;1.27;0.50;;;4.70;99.90;;;;;;6311440;22;20212;-80
2022/01/31 12:05:19;;;;;;;1.03;0.50;;;4.60;99.90;;;;;;6311595;22;20160;-81
2022/01/31 12:08:00;;;;;;;1.43;0.63;;;4.60;99.90;;;;;;6312730;22;20134;-80
2022/01/31 12:10:34;;;;;;;1.20;0.77;;;4.60;99.90;;;;;;6311949;22;20188;-81
2022/01/31 12:24:07;;;;;;;0.90;0.50;;;4.70;99.90;;;;;;6310153;22;20269;-80
2022/01/31 12:26:33;;;;;;;0.70;0.50;;;4.70;99.90;;;;;;6307992;22;20154;-80
2022/01/31 12:28:58;;;;;;;1.03;0.40;;;4.70;99.90;;;;;;6309975;22;20174;-81
2022/01/31 12:31:34;;;;;;;1.87;0.60;;;4.80;99.90;;;;;;6309880;22;20168;-80
2022/01/31 12:34:00;;;;;;;1.33;0.40;;;4.80;99.90;;;;;;6308978;22;20498;-80
2022/01/31 12:36:34;;;;;;;2.47;0.60;;;4.80;99.90;;;;;;6310095;22;20156;-81
2022/01/31 12:39:02;;;;;;;0.60;0.33;;;4.90;99.90;;;;;;6310129;22;20152;-81
2022/01/31 12:41:30;;;;;;;0.40;0.40;;;4.90;99.90;;;;;;6310139;22;20151;-80
2022/01/31 12:44:34;;;;;;;0.67;0.33;;;4.70;99.90;;;;;;6309712;22;20219;-80
2022/01/31 12:47:11;;;;;;;0.63;0.50;;;4.70;99.90;;;;;;6308362;22;20554;-80
2022/01/31 12:49:37;;;;;;;0.40;0.40;;;4.70;99.90;;;;;;6312767;22;20248;-80
2022/01/31 12:52:06;;;;;;;1.37;0.40;;;4.80;99.90;;;;;;6314673;22;20203;-80
2022/01/31 12:54:32;;;;;;;0.90;0.60;;;4.80;99.90;;;;;;6316074;22;20160;-81
2022/01/31 12:57:13;;;;;;;0.90;0.70;;;4.80;99.90;;;;;;6311340;22;20221;-80
2022/01/31 12:59:40;;;;;;;0.53;0.33;;;4.90;99.90;;;;;;6309881;22;20468;-80
2022/01/31 13:02:10;;;;;;;2.40;0.70;;;5.00;99.90;;;;;;6310122;22;20155;-80
2022/01/31 13:04:37;;;;;;;2.07;1.23;;;5.00;99.90;;;;;;6309842;22;20242;-81
2022/01/31 13:07:05;;;;;;;3.67;1.67;;;5.10;99.90;;;;;;6310200;22;20146;-81
2022/01/31 13:09:34;;;;;;;2.07;0.80;;;5.10;99.90;;;;;;6307490;22;20233;-80
2022/01/31 13:12:05;;;;;;;1.93;0.50;;;5.30;99.90;;;;;;6310596;22;20145;-80
2022/01/31 13:14:37;;;;;;;1.00;0.47;;;5.40;99.90;;;;;;6310442;22;20221;-80
2022/01/31 13:17:10;;;;;;;2.17;0.50;;;5.50;99.90;;;;;;6310183;22;20598;-80
2022/01/31 13:19:42;;;;;;;1.10;0.70;;;5.30;99.90;;;;;;6308715;22;20138;-80
2022/01/31 13:22:14;;;;;;;1.77;0.53;;;5.40;99.90;;;;;;6310743;22;20142;-81
2022/01/31 13:24:42;;;;;;;1.30;0.67;;;5.30;99.90;;;;;;6309372;22;20668;-80